Time;durP1;ratioP1;P1;durP2;ratioP2;P2;SDS_P1;SDS_P2;PMS_P1;PMS_P2;Temp;Humidity;BMP_temperature;BMP_pressure;BME280_temperature;BME280_humidity;BME280_pressure;Samples;Min_cycle;Max_cycle;Signal;HPM_P1;HPM_P2
2022/09/27 00:00:04;;;;;;;0.20;0.20;;;11.10;99.90;;;;;;4878277;29;20097;-78
2022/09/27 00:02:29;;;;;;;0.20;0.20;;;11.10;99.90;;;;;;4877105;29;20050;-78
2022/09/27 00:04:56;;;;;;;0.20;0.20;;;11.10;99.90;;;;;;4874442;29;20097;-78
2022/09/27 00:07:22;;;;;;;0.20;0.20;;;11.00;99.90;;;;;;4878887;29;20064;-78
2022/09/27 00:09:47;;;;;;;0.20;0.20;;;11.00;99.90;;;;;;4889427;29;20045;-78
2022/09/27 00:12:13;;;;;;;0.20;0.20;;;11.00;99.90;;;;;;4876428;29;20044;-78
2022/09/27 00:14:39;;;;;;;0.20;0.20;;;11.00;99.90;;;;;;4875685;29;20041;-78
2022/09/27 00:17:04;;;;;;;0.20;0.20;;;11.00;99.90;;;;;;4861774;29;20077;-77
2022/09/27 00:19:30;;;;;;;0.15;0.15;;;10.90;99.90;;;;;;4858659;29;20136;-78
2022/09/27 00:21:56;;;;;;;0.20;0.20;;;11.00;99.90;;;;;;4878148;29;20141;-78
2022/09/27 00:24:22;;;;;;;0.17;0.17;;;10.90;99.90;;;;;;4860696;29;20132;-78
2022/09/27 00:26:48;;;;;;;0.20;0.20;;;10.90;99.90;;;;;;4876940;29;20037;-78
2022/09/27 00:29:16;;;;;;;0.20;0.20;;;11.00;99.90;;;;;;4867892;29;20112;-78
2022/09/27 00:31:42;;;;;;;0.20;0.20;;;10.90;99.90;;;;;;4875125;29;20127;-77
2022/09/27 00:34:16;;;;;;;0.20;0.20;;;11.00;99.90;;;;;;4860771;29;20138;-77
2022/09/27 00:36:42;;;;;;;0.10;0.10;;;10.90;99.90;;;;;;4876458;29;20049;-77
2022/09/27 00:39:08;;;;;;;0.10;0.10;;;10.90;99.90;;;;;;4878298;29;20037;-77
2022/09/27 00:41:36;;;;;;;0.20;0.20;;;10.80;99.90;;;;;;4861620;29;20507;-77
2022/09/27 00:44:22;;;;;;;0.10;0.10;;;10.90;99.90;;;;;;4860032;29;20048;-77
2022/09/27 00:46:57;;;;;;;0.20;0.20;;;10.80;99.90;;;;;;4861422;29;20052;-78
2022/09/27 00:49:30;;;;;;;0.20;0.20;;;10.80;99.90;;;;;;4858994;29;20567;-78
2022/09/27 00:52:15;;;;;;;0.20;0.20;;;10.70;99.90;;;;;;4878176;29;20041;-78
2022/09/27 00:54:45;;;;;;;0.20;0.20;;;10.80;99.90;;;;;;4859614;29;20052;-77
2022/09/27 00:57:10;;;;;;;0.20;0.20;;;10.80;99.90;;;;;;4874887;29;20120;-78
2022/09/27 00:59:41;;;;;;;0.20;0.20;;;10.80;99.90;;;;;;4857858;29;20463;-78
2022/09/27 01:02:07;;;;;;;0.20;0.20;;;10.90;99.90;;;;;;4878911;29;20071;-77
2022/09/27 01:04:35;;;;;;;0.20;0.20;;;10.80;99.90;;;;;;4853949;29;20147;-77
2022/09/27 01:07:04;;;;;;;0.15;0.15;;;10.80;99.90;;;;;;4858116;29;20045;-77
2022/09/27 01:09:30;;;;;;;0.20;0.20;;;10.70;99.90;;;;;;4856460;29;20053;-78
2022/09/27 01:12:20;;;;;;;0.20;0.20;;;10.70;99.90;;;;;;4859713;29;20136;-78
2022/09/27 01:14:51;;;;;;;0.20;0.20;;;10.60;99.90;;;;;;4857972;29;20056;-78
2022/09/27 01:17:38;;;;;;;0.20;0.20;;;10.60;99.90;;;;;;4868722;29;20041;-78
2022/09/27 01:20:30;;;;;;;0.20;0.20;;;10.60;99.90;;;;;;4858810;29;20045;-78
2022/09/27 01:23:33;;;;;;;0.20;0.20;;;10.60;99.90;;;;;;4873768;29;20493;-78
2022/09/27 01:26:01;;;;;;;0.20;0.20;;;10.50;99.90;;;;;;4860534;29;20096;-78
2022/09/27 01:29:01;;;;;;;0.20;0.20;;;10.60;99.90;;;;;;4868650;29;20085;-78
2022/09/27 01:31:48;;;;;;;0.15;0.15;;;10.50;99.90;;;;;;4868085;29;20056;-78
2022/09/27 01:34:22;;;;;;;0.20;0.20;;;10.60;99.90;;;;;;4853588;29;20052;-78
2022/09/27 01:37:00;;;;;;;0.20;0.20;;;10.60;99.90;;;;;;4873875;29;20105;-78
2022/09/27 01:40:16;;;;;;;0.20;0.20;;;10.60;99.90;;;;;;4858292;29;20389;-78
2022/09/27 01:43:09;;;;;;;0.20;0.20;;;10.60;99.90;;;;;;4837658;29;20049;-79
2022/09/27 01:45:56;;;;;;;0.20;0.20;;;10.60;99.90;;;;;;4859880;29;20049;-78
2022/09/27 01:48:32;;;;;;;0.10;0.10;;;10.60;99.90;;;;;;4875379;29;20501;-78
2022/09/27 01:51:11;;;;;;;0.20;0.20;;;10.60;99.90;;;;;;4858433;29;20127;-79
2022/09/27 01:54:07;;;;;;;0.15;0.15;;;10.60;99.90;;;;;;4875974;29;20148;-79
2022/09/27 01:56:38;;;;;;;0.17;0.17;;;10.60;99.90;;;;;;4839869;29;20497;-78
2022/09/27 01:59:10;;;;;;;0.15;0.15;;;10.50;99.90;;;;;;4872719;29;20053;-78
2022/09/27 02:01:40;;;;;;;0.10;0.10;;;10.60;99.90;;;;;;4873263;29;20041;-78
2022/09/27 02:04:10;;;;;;;0.20;0.20;;;10.70;99.90;;;;;;4855663;29;20056;-77
2022/09/27 02:06:41;;;;;;;0.20;0.20;;;10.60;99.90;;;;;;4856951;29;20053;-78
2022/09/27 02:09:23;;;;;;;0.20;0.20;;;10.60;99.90;;;;;;4875106;29;20048;-78
2022/09/27 02:11:54;;;;;;;0.20;0.20;;;10.60;99.90;;;;;;4871906;29;20049;-78
2022/09/27 02:14:26;;;;;;;0.20;0.20;;;10.50;99.90;;;;;;4856412;29;20101;-78
2022/09/27 02:17:07;;;;;;;0.20;0.20;;;10.50;99.90;;;;;;4875009;29;20409;-79
2022/09/27 02:19:45;;;;;;;0.22;0.22;;;10.50;99.90;;;;;;4857864;29;20131;-77
2022/09/27 02:22:34;;;;;;;0.20;0.20;;;10.50;99.90;;;;;;4875687;29;20056;-78
2022/09/27 02:25:25;;;;;;;0.20;0.20;;;10.50;99.90;;;;;;4873163;29;20053;-78
2022/09/27 02:28:06;;;;;;;0.20;0.20;;;10.50;99.90;;;;;;4887754;29;20143;-79
2022/09/27 02:30:35;;;;;;;0.20;0.20;;;10.50;99.90;;;;;;4855859;29;20052;-79
2022/09/27 02:33:01;;;;;;;0.20;0.20;;;10.40;99.90;;;;;;4856266;29;20113;-78
2022/09/27 02:35:31;;;;;;;0.20;0.20;;;10.40;99.90;;;;;;4872294;29;20461;-79
2022/09/27 02:37:58;;;;;;;0.20;0.20;;;10.50;99.90;;;;;;4882734;29;20049;-79
2022/09/27 02:40:28;;;;;;;0.13;0.13;;;10.50;99.90;;;;;;4859349;29;20060;-79
2022/09/27 02:43:09;;;;;;;0.15;0.15;;;10.50;99.90;;;;;;4871648;29;20061;-78
2022/09/27 02:45:50;;;;;;;0.20;0.20;;;10.40;99.90;;;;;;4859655;29;20049;-79
2022/09/27 02:48:57;;;;;;;0.20;0.20;;;10.50;99.90;;;;;;4857560;29;20564;-78
2022/09/27 02:51:37;;;;;;;0.20;0.20;;;10.40;99.90;;;;;;4848477;29;20083;-78
2022/09/27 02:54:47;;;;;;;0.20;0.20;;;10.40;99.90;;;;;;4871224;29;20048;-79
2022/09/27 02:57:19;;;;;;;0.20;0.20;;;10.40;99.90;;;;;;4857995;29;20049;-79
2022/09/27 03:00:06;;;;;;;;;;;10.40;99.90;;;;;;4875869;29;20041;-78
2022/09/27 03:03:06;;;;;;;0.10;0.10;;;10.30;99.90;;;;;;4854688;29;19972;-79
2022/09/27 03:05:48;;;;;;;0.10;0.10;;;10.30;99.90;;;;;;4858141;29;20057;-78
2022/09/27 03:08:13;;;;;;;;;;;10.10;99.90;;;;;;4859734;29;20080;-78
2022/09/27 03:10:39;;;;;;;0.20;0.20;;;10.30;99.90;;;;;;4860086;29;20023;-78
2022/09/27 03:13:05;;;;;;;0.20;0.20;;;10.30;99.90;;;;;;4877090;29;20173;-77
2022/09/27 03:15:37;;;;;;;0.20;0.20;;;10.20;99.90;;;;;;4882834;29;20044;-78
2022/09/27 03:18:03;;;;;;;0.20;0.20;;;10.20;99.90;;;;;;4867943;29;20499;-78
2022/09/27 03:20:28;;;;;;;0.20;0.20;;;10.20;99.90;;;;;;4878471;29;20048;-79
2022/09/27 03:22:55;;;;;;;0.20;0.20;;;10.20;99.90;;;;;;4862263;29;20049;-79
2022/09/27 03:25:23;;;;;;;0.20;0.20;;;10.20;99.90;;;;;;4872941;29;20540;-78
2022/09/27 03:27:49;;;;;;;0.20;0.20;;;10.30;99.90;;;;;;4854307;29;20061;-78
2022/09/27 03:30:15;;;;;;;0.10;0.10;;;10.10;99.90;;;;;;4852819;29;20106;-78
2022/09/27 03:32:42;;;;;;;0.10;0.10;;;10.20;99.90;;;;;;4846472;29;20045;-79
2022/09/27 03:35:08;;;;;;;0.20;0.20;;;10.00;99.90;;;;;;4852308;29;20041;-78
2022/09/27 03:37:33;;;;;;;0.20;0.20;;;10.00;99.90;;;;;;4854112;29;20065;-78
2022/09/27 03:39:59;;;;;;;0.20;0.20;;;10.00;99.90;;;;;;4855967;29;20064;-78
2022/09/27 03:42:27;;;;;;;0.15;0.15;;;10.00;99.90;;;;;;4855635;29;20626;-79
2022/09/27 03:44:53;;;;;;;0.13;0.13;;;10.00;99.90;;;;;;4855966;29;20128;-78
2022/09/27 03:47:19;;;;;;;0.20;0.20;;;10.00;99.90;;;;;;4855109;29;20052;-78
2022/09/27 03:49:44;;;;;;;0.20;0.20;;;9.90;99.90;;;;;;4851938;29;20144;-78
2022/09/27 03:52:11;;;;;;;0.20;0.20;;;9.90;99.90;;;;;;4855873;29;20045;-79
2022/09/27 03:54:39;;;;;;;0.10;0.10;;;9.90;99.90;;;;;;4856015;29;20077;-78
2022/09/27 03:57:05;;;;;;;0.20;0.20;;;9.90;99.90;;;;;;4856458;29;20084;-78
2022/09/27 03:59:31;;;;;;;0.20;0.20;;;9.90;99.90;;;;;;4859510;29;20045;-79
2022/09/27 04:01:56;;;;;;;0.20;0.20;;;9.90;99.90;;;;;;4860165;29;20118;-78
2022/09/27 04:04:22;;;;;;;0.20;0.20;;;9.90;99.90;;;;;;4858439;29;20064;-78
2022/09/27 04:06:48;;;;;;;0.20;0.20;;;9.90;99.90;;;;;;4861335;29;20045;-77
2022/09/27 04:09:14;;;;;;;0.20;0.20;;;9.90;99.90;;;;;;4858637;29;20046;-78
2022/09/27 04:11:40;;;;;;;0.20;0.20;;;9.90;99.90;;;;;;4859742;29;20105;-79
2022/09/27 04:14:07;;;;;;;0.20;0.20;;;9.90;99.90;;;;;;4859286;29;20128;-78
2022/09/27 04:16:33;;;;;;;0.20;0.20;;;10.10;99.90;;;;;;4859118;29;20061;-78
2022/09/27 04:19:02;;;;;;;0.15;0.15;;;9.90;99.90;;;;;;4856671;29;20131;-78
2022/09/27 04:21:28;;;;;;;0.10;0.10;;;9.90;99.90;;;;;;4857046;29;20102;-78
2022/09/27 04:23:53;;;;;;;0.15;0.15;;;9.90;99.90;;;;;;4859115;29;20045;-78
2022/09/27 04:26:19;;;;;;;0.10;0.10;;;9.90;99.90;;;;;;4860570;29;20625;-78
2022/09/27 04:28:46;;;;;;;0.20;0.20;;;9.90;99.90;;;;;;4875312;29;20065;-78
2022/09/27 04:31:14;;;;;;;0.20;0.20;;;9.90;99.90;;;;;;4878001;29;20037;-78
2022/09/27 04:33:40;;;;;;;0.20;0.20;;;9.90;99.90;;;;;;4877137;29;20193;-78
2022/09/27 04:38:50;;;;;;;0.15;0.15;;;9.90;99.90;;;;;;4860817;29;20586;-78
2022/09/27 04:41:16;;;;;;;0.20;0.20;;;9.90;99.90;;;;;;4878011;29;20165;-78
2022/09/27 04:43:44;;;;;;;0.10;0.10;;;9.90;99.90;;;;;;4863026;29;20492;-78
2022/09/27 04:46:10;;;;;;;0.15;0.15;;;9.90;99.90;;;;;;4879766;29;20073;-78
2022/09/27 04:48:36;;;;;;;0.10;0.10;;;9.90;99.90;;;;;;4878192;29;20397;-79
2022/09/27 04:51:02;;;;;;;0.20;0.20;;;10.00;99.90;;;;;;4859703;29;20057;-78
2022/09/27 04:53:28;;;;;;;0.20;0.20;;;9.90;99.90;;;;;;4879403;29;20155;-78
2022/09/27 04:55:54;;;;;;;0.20;0.20;;;10.00;99.90;;;;;;4880186;29;20135;-78
2022/09/27 04:58:22;;;;;;;0.17;0.17;;;9.90;99.90;;;;;;4877832;29;20065;-78
2022/09/27 05:00:54;;;;;;;0.20;0.20;;;10.00;99.90;;;;;;4877431;29;20112;-77
2022/09/27 05:03:21;;;;;;;0.20;0.20;;;10.00;99.90;;;;;;4880946;29;20053;-77
2022/09/27 05:05:47;;;;;;;0.10;0.10;;;10.00;99.90;;;;;;4869090;29;20044;-79
2022/09/27 05:08:15;;;;;;;0.20;0.20;;;10.00;99.90;;;;;;4860134;29;20185;-79
2022/09/27 05:10:40;;;;;;;0.20;0.20;;;9.90;99.90;;;;;;4874474;29;20401;-78
2022/09/27 05:13:09;;;;;;;0.10;0.10;;;9.90;99.90;;;;;;4861011;29;20049;-78
2022/09/27 05:15:35;;;;;;;0.20;0.20;;;9.90;99.90;;;;;;4858881;29;20041;-78
2022/09/27 05:18:00;;;;;;;0.20;0.20;;;9.90;99.90;;;;;;4859798;29;20033;-79
2022/09/27 05:20:26;;;;;;;0.20;0.20;;;9.90;99.90;;;;;;4875729;29;20568;-78
2022/09/27 05:22:52;;;;;;;0.20;0.20;;;9.90;99.90;;;;;;4877738;29;20055;-78
2022/09/27 05:25:18;;;;;;;0.20;0.20;;;9.90;99.90;;;;;;4878130;29;20263;-78
2022/09/27 05:27:44;;;;;;;0.13;0.13;;;9.90;99.90;;;;;;4858818;29;20049;-79
2022/09/27 05:30:10;;;;;;;0.20;0.20;;;9.90;99.90;;;;;;4860574;29;20053;-78
2022/09/27 05:32:46;;;;;;;0.20;0.20;;;9.90;99.90;;;;;;4854085;29;20181;-79
2022/09/27 05:35:13;;;;;;;0.20;0.20;;;9.80;99.90;;;;;;4856853;29;20060;-79
2022/09/27 05:37:39;;;;;;;0.20;0.20;;;9.90;99.90;;;;;;4858986;29;20136;-79
2022/09/27 05:40:06;;;;;;;0.20;0.20;;;10.00;99.90;;;;;;4876001;29;20077;-80
2022/09/27 05:42:33;;;;;;;0.20;0.20;;;9.90;99.90;;;;;;4874022;29;20446;-79
2022/09/27 05:44:59;;;;;;;0.20;0.20;;;9.80;99.90;;;;;;4857910;29;20128;-79
2022/09/27 05:47:24;;;;;;;0.20;0.20;;;9.90;99.90;;;;;;4859065;29;20128;-79
2022/09/27 05:49:50;;;;;;;0.20;0.20;;;9.80;99.90;;;;;;4855063;29;20126;-78
2022/09/27 05:52:17;;;;;;;0.20;0.20;;;9.80;99.90;;;;;;4877390;29;20072;-78
2022/09/27 05:54:42;;;;;;;0.13;0.13;;;9.90;99.90;;;;;;4876215;29;20132;-77
2022/09/27 05:57:08;;;;;;;0.10;0.10;;;10.00;99.90;;;;;;4881535;29;20060;-78
2022/09/27 05:59:34;;;;;;;0.20;0.20;;;9.90;99.90;;;;;;4866988;29;20094;-79
2022/09/27 06:02:02;;;;;;;0.20;0.20;;;9.90;99.90;;;;;;4858892;29;20121;-78
2022/09/27 06:04:31;;;;;;;0.20;0.20;;;9.90;99.90;;;;;;4873818;29;21812;-78
2022/09/27 06:06:57;;;;;;;0.20;0.20;;;9.90;99.90;;;;;;4858309;29;20511;-79
2022/09/27 06:09:27;;;;;;;0.10;0.10;;;9.90;99.90;;;;;;4872259;29;20061;-78
2022/09/27 06:11:55;;;;;;;0.20;0.20;;;9.90;99.90;;;;;;4875860;29;20053;-78
2022/09/27 06:14:21;;;;;;;0.20;0.20;;;9.90;99.90;;;;;;4875869;29;20433;-78
2022/09/27 06:16:47;;;;;;;0.20;0.20;;;9.90;99.90;;;;;;4859778;29;20053;-78
2022/09/27 06:19:12;;;;;;;0.20;0.20;;;9.90;99.90;;;;;;4858409;29;20041;-78
2022/09/27 06:21:38;;;;;;;0.20;0.20;;;9.90;99.90;;;;;;4875960;29;20101;-77
2022/09/27 06:24:04;;;;;;;0.20;0.20;;;9.90;99.90;;;;;;4876149;29;20055;-77
2022/09/27 06:26:29;;;;;;;0.20;0.20;;;9.90;99.90;;;;;;4875961;29;20121;-78
2022/09/27 06:28:55;;;;;;;0.20;0.20;;;9.90;99.90;;;;;;4859330;29;20053;-78
2022/09/27 06:31:31;;;;;;;0.20;0.20;;;9.90;99.90;;;;;;4875376;29;20663;-77
2022/09/27 06:33:56;;;;;;;0.20;0.20;;;9.90;99.90;;;;;;4873070;29;20045;-78
2022/09/27 06:36:22;;;;;;;0.10;0.10;;;9.90;99.90;;;;;;4874652;29;20112;-78
2022/09/27 06:38:48;;;;;;;0.17;0.17;;;9.90;99.90;;;;;;4858645;29;20088;-77
2022/09/27 06:41:16;;;;;;;0.20;0.20;;;9.90;99.90;;;;;;4860442;29;20052;-76
2022/09/27 06:43:42;;;;;;;0.20;0.20;;;10.00;99.90;;;;;;4875589;29;20052;-78
2022/09/27 06:46:08;;;;;;;0.20;0.20;;;10.00;99.90;;;;;;4886618;29;20037;-78
2022/09/27 06:48:36;;;;;;;0.20;0.20;;;10.00;99.90;;;;;;4887355;29;20038;-78
2022/09/27 06:51:02;;;;;;;0.20;0.20;;;10.00;99.90;;;;;;4859795;29;20045;-77
2022/09/27 06:53:29;;;;;;;0.20;0.20;;;10.00;99.90;;;;;;4875804;29;20049;-78
2022/09/27 06:56:01;;;;;;;0.20;0.20;;;10.00;99.90;;;;;;4855274;29;20478;-78
2022/09/27 07:01:12;;;;;;;0.15;0.15;;;10.00;99.90;;;;;;4857894;29;20057;-78
2022/09/27 07:03:40;;;;;;;0.10;0.10;;;10.00;99.90;;;;;;4874341;29;20113;-78
2022/09/27 07:06:14;;;;;;;0.20;0.20;;;10.00;99.90;;;;;;4876053;29;20053;-79
2022/09/27 07:08:40;;;;;;;0.10;0.10;;;10.00;99.90;;;;;;4874898;29;20172;-79
2022/09/27 07:11:06;;;;;;;0.10;0.10;;;10.10;99.90;;;;;;4858254;29;20084;-78
2022/09/27 07:13:33;;;;;;;0.20;0.20;;;10.10;99.90;;;;;;4873939;29;20053;-78
2022/09/27 07:16:01;;;;;;;0.20;0.20;;;10.10;99.90;;;;;;4875065;29;20076;-78
2022/09/27 07:18:27;;;;;;;0.10;0.10;;;10.20;99.90;;;;;;4840424;29;20042;-77
2022/09/27 07:20:53;;;;;;;0.10;0.10;;;10.20;99.90;;;;;;4873688;29;20040;-78
2022/09/27 07:23:19;;;;;;;0.17;0.17;;;10.20;99.90;;;;;;4862250;29;20072;-78
2022/09/27 07:25:46;;;;;;;0.20;0.20;;;10.20;99.90;;;;;;4889588;29;20132;-78
2022/09/27 07:28:19;;;;;;;0.10;0.10;;;10.20;99.90;;;;;;4876549;29;20041;-77
2022/09/27 07:30:45;;;;;;;0.20;0.20;;;10.20;99.90;;;;;;4841276;29;20589;-78
2022/09/27 07:33:11;;;;;;;0.15;0.15;;;10.20;99.90;;;;;;4858040;29;20136;-78
2022/09/27 07:35:42;;;;;;;0.20;0.20;;;10.20;99.90;;;;;;4862005;29;20068;-79
2022/09/27 07:38:12;;;;;;;0.10;0.10;;;10.20;99.90;;;;;;4879221;29;20099;-79
2022/09/27 07:40:39;;;;;;;0.20;0.20;;;10.20;99.90;;;;;;4865144;29;20108;-78
2022/09/27 07:43:06;;;;;;;0.10;0.10;;;10.30;99.90;;;;;;4861422;29;20505;-78
2022/09/27 07:45:35;;;;;;;0.20;0.20;;;10.30;99.90;;;;;;4877673;29;20120;-78
2022/09/27 07:48:05;;;;;;;0.20;0.20;;;10.40;99.90;;;;;;4875203;29;20037;-79
2022/09/27 07:50:30;;;;;;;0.10;0.10;;;10.50;99.90;;;;;;4878972;29;20108;-78
2022/09/27 07:52:57;;;;;;;0.10;0.10;;;10.50;99.90;;;;;;4865009;29;20435;-79
2022/09/27 07:55:23;;;;;;;0.10;0.10;;;10.50;99.90;;;;;;4871105;29;20077;-78
2022/09/27 07:57:49;;;;;;;0.20;0.20;;;10.60;99.90;;;;;;4881848;29;20033;-79
2022/09/27 08:00:18;;;;;;;0.20;0.20;;;10.70;99.90;;;;;;4859888;29;20046;-80
2022/09/27 08:02:56;;;;;;;0.20;0.20;;;10.70;99.90;;;;;;4873215;29;20112;-80
2022/09/27 08:05:22;;;;;;;0.20;0.20;;;10.70;99.90;;;;;;4879659;29;20180;-82
2022/09/27 08:07:52;;;;;;;0.20;0.20;;;10.70;99.90;;;;;;4861950;29;20517;-85
2022/09/27 08:10:18;;;;;;;0.20;0.20;;;10.70;99.90;;;;;;4862465;29;20062;-82
2022/09/27 08:12:44;;;;;;;0.20;0.20;;;10.70;99.90;;;;;;4879053;29;20309;-83
2022/09/27 08:15:10;;;;;;;0.10;0.10;;;10.70;99.90;;;;;;4862446;29;20053;-82
2022/09/27 08:17:35;;;;;;;0.13;0.13;;;10.70;99.90;;;;;;4875659;29;20379;-81
2022/09/27 08:20:05;;;;;;;0.20;0.20;;;10.70;99.90;;;;;;4861689;29;20093;-81
2022/09/27 08:22:30;;;;;;;0.20;0.20;;;10.70;99.90;;;;;;4890243;29;20045;-82
2022/09/27 08:24:56;;;;;;;0.20;0.20;;;10.60;99.90;;;;;;4877466;29;20545;-82
2022/09/27 08:27:22;;;;;;;0.20;0.20;;;10.70;99.90;;;;;;4860529;29;20549;-81
2022/09/27 08:29:50;;;;;;;0.20;0.20;;;10.80;99.90;;;;;;4881917;29;20061;-82
2022/09/27 08:32:16;;;;;;;0.20;0.20;;;10.80;99.90;;;;;;4880287;29;20033;-83
2022/09/27 08:34:42;;;;;;;0.20;0.20;;;10.80;99.90;;;;;;4897422;29;20113;-81
2022/09/27 08:37:07;;;;;;;0.17;0.17;;;10.90;99.90;;;;;;4872764;29;20040;-82
2022/09/27 08:39:33;;;;;;;0.20;0.20;;;10.90;99.90;;;;;;4877874;29;20565;-82
2022/09/27 08:42:48;;;;;;;0.13;0.13;;;10.90;99.90;;;;;;4871538;29;20045;-82
2022/09/27 08:45:40;;;;;;;0.20;0.20;;;11.00;99.90;;;;;;4802594;29;20051;-81
2022/09/27 08:48:09;;;;;;;0.20;0.20;;;11.10;99.90;;;;;;4773050;29;20063;-82
2022/09/27 08:50:43;;;;;;;0.20;0.20;;;11.10;99.90;;;;;;4847298;29;20053;-82
2022/09/27 08:53:29;;;;;;;0.20;0.20;;;11.10;99.90;;;;;;4892276;29;20088;-82
2022/09/27 08:55:56;;;;;;;0.20;0.20;;;11.20;99.90;;;;;;4872027;29;20048;-82
2022/09/27 08:58:40;;;;;;;0.20;0.20;;;11.20;99.90;;;;;;4874930;29;20041;-81
2022/09/27 09:01:13;;;;;;;0.10;0.10;;;11.20;99.90;;;;;;4877948;29;20053;-81
2022/09/27 09:03:47;;;;;;;0.20;0.20;;;11.20;99.90;;;;;;4877407;29;20421;-81
2022/09/27 09:06:21;;;;;;;0.10;0.10;;;11.30;99.90;;;;;;4876288;29;20052;-81
2022/09/27 09:09:05;;;;;;;0.20;0.20;;;11.30;99.90;;;;;;4871561;29;20131;-82
2022/09/27 09:15:00;;;;;;;0.20;0.20;;;11.30;99.90;;;;;;4861117;29;20049;-81
2022/09/27 09:17:38;;;;;;;0.20;0.20;;;11.30;99.90;;;;;;4878308;29;20048;-80
2022/09/27 09:20:15;;;;;;;0.10;0.10;;;11.30;99.90;;;;;;4877080;29;20132;-81
2022/09/27 09:23:11;;;;;;;0.20;0.20;;;11.30;99.90;;;;;;4863590;29;20481;-81
2022/09/27 09:26:04;;;;;;;0.13;0.13;;;11.20;99.90;;;;;;4855290;29;20132;-80
2022/09/27 09:28:58;;;;;;;0.10;0.10;;;11.20;99.90;;;;;;4851978;29;20081;-79
2022/09/27 09:31:30;;;;;;;0.20;0.20;;;11.20;99.90;;;;;;4854325;29;20045;-79
2022/09/27 09:34:04;;;;;;;0.20;0.20;;;11.20;99.90;;;;;;4865927;29;20045;-80
2022/09/27 09:36:46;;;;;;;0.15;0.15;;;11.10;99.90;;;;;;4853795;29;20068;-80
2022/09/27 09:39:32;;;;;;;0.20;0.20;;;11.00;99.90;;;;;;4854902;29;20704;-81
2022/09/27 09:42:13;;;;;;;0.20;0.20;;;11.00;99.90;;;;;;4857522;29;20148;-81
2022/09/27 09:45:04;;;;;;;0.20;0.20;;;10.90;99.90;;;;;;4858397;29;20184;-82
2022/09/27 09:47:49;;;;;;;;;;;10.90;99.90;;;;;;4861321;29;20060;-79
2022/09/27 09:50:28;;;;;;;0.20;0.20;;;10.80;99.90;;;;;;4859512;29;19928;-82
2022/09/27 09:53:03;;;;;;;0.20;0.20;;;10.80;99.90;;;;;;4853818;29;20080;-80
2022/09/27 09:55:33;;;;;;;0.15;0.15;;;10.80;99.90;;;;;;4872472;29;20060;-80
2022/09/27 09:58:18;;;;;;;0.10;0.10;;;10.80;99.90;;;;;;4857099;29;20049;-80
2022/09/27 10:00:46;;;;;;;0.20;0.20;;;10.90;99.90;;;;;;4858299;29;20110;-81
2022/09/27 10:03:11;;;;;;;0.13;0.13;;;10.80;99.90;;;;;;4854650;29;20136;-81
2022/09/27 10:05:39;;;;;;;0.20;0.20;;;10.90;99.90;;;;;;4858527;29;20158;-81
2022/09/27 10:08:21;;;;;;;0.20;0.20;;;10.90;99.90;;;;;;4859116;29;20046;-80
2022/09/27 10:10:46;;;;;;;0.20;0.20;;;10.90;99.90;;;;;;4858144;29;20117;-81
2022/09/27 10:13:20;;;;;;;0.20;0.20;;;11.00;99.90;;;;;;4858382;29;20065;-81
2022/09/27 10:16:01;;;;;;;0.20;0.20;;;11.00;99.90;;;;;;4856193;29;20050;-81
2022/09/27 10:18:28;;;;;;;0.20;0.20;;;11.00;99.90;;;;;;4876156;29;20049;-81
2022/09/27 10:21:02;;;;;;;0.20;0.20;;;11.00;99.90;;;;;;4884008;29;20053;-81
2022/09/27 10:23:29;;;;;;;0.20;0.20;;;11.00;99.90;;;;;;4860494;29;20422;-82
2022/09/27 10:26:01;;;;;;;0.20;0.20;;;11.10;99.90;;;;;;4857548;29;20049;-83
2022/09/27 10:28:31;;;;;;;0.20;0.20;;;11.10;99.90;;;;;;4869638;29;20061;-82
2022/09/27 10:31:03;;;;;;;0.20;0.20;;;11.00;99.90;;;;;;4857776;29;20057;-82
2022/09/27 10:33:33;;;;;;;0.17;0.17;;;11.10;99.90;;;;;;4875047;29;20113;-83
2022/09/27 10:36:00;;;;;;;0.20;0.20;;;11.10;99.90;;;;;;4856962;29;20049;-78
2022/09/27 10:38:34;;;;;;;0.20;0.20;;;11.20;99.90;;;;;;4856200;29;20053;-82
2022/09/27 10:41:22;;;;;;;0.10;0.10;;;11.20;99.90;;;;;;4875374;29;20084;-83
2022/09/27 10:43:47;;;;;;;0.20;0.20;;;11.20;99.90;;;;;;4849433;29;20078;-83
2022/09/27 10:46:23;;;;;;;0.20;0.20;;;11.20;99.90;;;;;;4858810;29;20049;-84
2022/09/27 10:49:20;;;;;;;0.20;0.20;;;11.30;99.90;;;;;;4874149;29;20048;-83
2022/09/27 10:52:00;;;;;;;0.10;0.10;;;11.30;99.90;;;;;;4859637;29;20044;-84
2022/09/27 10:54:33;;;;;;;0.10;0.10;;;11.40;99.90;;;;;;4875021;29;20064;-86
2022/09/27 10:57:18;;;;;;;0.20;0.20;;;11.50;99.90;;;;;;4875038;29;20506;-84
2022/09/27 10:59:49;;;;;;;0.20;0.20;;;11.60;99.90;;;;;;4874543;29;20060;-83
2022/09/27 11:02:40;;;;;;;0.20;0.20;;;11.70;99.90;;;;;;4874781;29;20534;-83
2022/09/27 11:05:11;;;;;;;0.20;0.20;;;11.90;99.90;;;;;;4859030;29;20049;-83
2022/09/27 11:07:56;;;;;;;0.20;0.20;;;11.90;99.90;;;;;;4876305;29;20505;-82
2022/09/27 11:10:30;;;;;;;0.20;0.20;;;11.80;99.90;;;;;;4855177;29;20049;-82
2022/09/27 11:13:17;;;;;;;0.20;0.20;;;11.80;99.90;;;;;;4864057;29;20083;-83
2022/09/27 11:15:59;;;;;;;0.20;0.20;;;11.80;99.90;;;;;;4857124;29;20445;-82
2022/09/27 11:19:05;;;;;;;0.10;0.10;;;11.70;99.90;;;;;;4874232;29;20045;-84
2022/09/27 11:21:49;;;;;;;0.13;0.13;;;11.60;99.90;;;;;;4859474;29;20511;-81
2022/09/27 11:24:27;;;;;;;0.10;0.10;;;11.60;99.90;;;;;;4859580;29;20053;-82
2022/09/27 11:27:30;;;;;;;0.20;0.20;;;11.50;99.90;;;;;;4851256;29;20053;-83
2022/09/27 11:30:10;;;;;;;0.20;0.20;;;11.40;99.90;;;;;;4875248;29;20060;-82
2022/09/27 11:32:45;;;;;;;0.20;0.20;;;11.40;99.90;;;;;;4857838;29;20113;-80
2022/09/27 11:35:25;;;;;;;0.10;0.10;;;11.40;99.90;;;;;;4842021;29;20057;-81
2022/09/27 11:38:09;;;;;;;0.20;0.20;;;11.40;99.90;;;;;;4858239;29;20083;-83
2022/09/27 11:41:39;;;;;;;0.20;0.20;;;11.30;99.90;;;;;;4856706;29;20049;-82
2022/09/27 11:44:24;;;;;;;0.20;0.20;;;11.30;99.90;;;;;;4850195;29;20045;-82
2022/09/27 11:47:10;;;;;;;0.20;0.20;;;11.30;99.90;;;;;;4870083;29;20053;-82
2022/09/27 11:50:33;;;;;;;0.13;0.13;;;11.40;99.90;;;;;;4893898;29;20163;-78
2022/09/27 11:53:26;;;;;;;0.20;0.20;;;11.40;99.90;;;;;;4870187;29;20038;-83
2022/09/27 11:56:12;;;;;;;0.10;0.10;;;11.50;99.90;;;;;;4886287;29;20136;-81
2022/09/27 11:59:01;;;;;;;0.10;0.10;;;11.60;99.90;;;;;;4847681;29;20166;-82
2022/09/27 12:01:30;;;;;;;0.20;0.20;;;11.60;99.90;;;;;;4875604;29;20060;-83
2022/09/27 12:04:06;;;;;;;0.20;0.20;;;11.70;99.90;;;;;;4890720;29;20033;-81
2022/09/27 12:06:47;;;;;;;0.20;0.20;;;11.60;99.90;;;;;;4899528;29;20035;-83
2022/09/27 12:09:27;;;;;;;0.20;0.20;;;11.50;99.90;;;;;;4865747;29;20527;-83
2022/09/27 12:11:59;;;;;;;0.20;0.20;;;11.50;99.90;;;;;;4870086;29;20049;-81
2022/09/27 12:14:43;;;;;;;0.15;0.15;;;11.50;99.90;;;;;;4865484;29;20146;-82
2022/09/27 12:17:16;;;;;;;0.20;0.20;;;11.50;99.90;;;;;;4859495;29;20049;-81
2022/09/27 12:19:50;;;;;;;0.20;0.20;;;11.60;99.90;;;;;;4859802;29;20064;-82
2022/09/27 12:22:22;;;;;;;0.10;0.10;;;11.80;99.90;;;;;;4878630;29;20049;-81
2022/09/27 12:24:49;;;;;;;0.20;0.20;;;11.90;99.90;;;;;;4876736;29;20608;-82
2022/09/27 12:27:43;;;;;;;0.20;0.20;;;12.20;99.90;;;;;;4864244;29;20061;-82
2022/09/27 12:30:13;;;;;;;0.20;0.20;;;12.20;99.90;;;;;;4876812;29;20064;-83
2022/09/27 12:33:09;;;;;;;0.10;0.10;;;12.20;99.90;;;;;;4881971;29;20059;-80
2022/09/27 12:35:43;;;;;;;0.10;0.10;;;12.30;99.90;;;;;;4852313;29;20049;-85
2022/09/27 12:38:33;;;;;;;0.20;0.20;;;12.30;99.90;;;;;;4887106;29;20049;-84
2022/09/27 12:41:04;;;;;;;0.20;0.20;;;12.30;99.90;;;;;;4865020;29;20042;-84
2022/09/27 12:43:30;;;;;;;0.20;0.20;;;12.50;99.90;;;;;;4859737;29;20052;-84
2022/09/27 12:46:21;;;;;;;0.10;0.10;;;12.40;99.90;;;;;;4851822;29;20052;-84
2022/09/27 12:48:49;;;;;;;0.10;0.10;;;12.30;99.90;;;;;;4839876;29;20574;-85
2022/09/27 12:51:19;;;;;;;0.20;0.20;;;12.30;99.90;;;;;;4875547;29;20140;-85
2022/09/27 12:53:50;;;;;;;0.10;0.10;;;12.30;99.90;;;;;;4869519;29;20570;-84
2022/09/27 12:56:22;;;;;;;0.10;0.10;;;12.30;99.90;;;;;;4865990;29;20049;-84
2022/09/27 12:58:47;;;;;;;;;;;12.40;99.90;;;;;;4866952;29;20037;-84
2022/09/27 13:01:57;;;;;;;0.10;0.10;;;12.40;99.90;;;;;;4862488;29;20307;-85
2022/09/27 13:04:50;;;;;;;0.20;0.20;;;12.40;99.90;;;;;;4858264;29;20132;-83
2022/09/27 13:07:46;;;;;;;0.20;0.20;;;12.40;99.90;;;;;;4867186;29;20497;-84
2022/09/27 13:10:41;;;;;;;0.10;0.10;;;12.40;99.90;;;;;;4872459;29;20096;-83
2022/09/27 13:13:13;;;;;;;0.15;0.15;;;12.40;99.90;;;;;;4852823;29;20512;-84
2022/09/27 13:15:39;;;;;;;0.20;0.20;;;;;;;;;;4871279;29;20052;-83
2022/09/27 13:18:25;;;;;;;0.20;0.20;;;;;;;;;;4871359;29;20200;-84
2022/09/27 13:20:52;;;;;;;0.20;0.20;;;;;;;;;;4863037;29;20045;-86
2022/09/27 13:23:18;;;;;;;0.20;0.20;;;;;;;;;;4858893;29;20045;-83
2022/09/27 13:25:53;;;;;;;0.20;0.20;;;;;;;;;;4876925;29;20108;-85
2022/09/27 13:28:31;;;;;;;0.20;0.20;;;;;;;;;;4856049;29;20147;-83
2022/09/27 13:31:04;;;;;;;0.10;0.10;;;;;;;;;;4877544;29;20041;-82
2022/09/27 13:33:48;;;;;;;0.10;0.10;;;;;;;;;;4858114;29;20468;-81